createdAt,value
2018-01-17T00:00:32.610Z,985.92
2018-01-17T00:01:13.177Z,985.93
2018-01-17T00:01:53.754Z,985.92
2018-01-17T00:02:34.324Z,985.94
2018-01-17T00:03:14.941Z,985.92
2018-01-17T00:03:55.528Z,985.92
2018-01-17T00:04:36.086Z,985.93
2018-01-17T00:05:16.677Z,985.9
2018-01-17T00:05:57.247Z,985.9
2018-01-17T00:06:37.826Z,985.87
2018-01-17T00:07:18.397Z,985.87
2018-01-17T00:07:58.961Z,985.89
2018-01-17T00:08:39.562Z,985.91
2018-01-17T00:09:20.130Z,985.87
2018-01-17T00:10:00.703Z,985.92
2018-01-17T00:10:41.262Z,985.86
2018-01-17T00:11:21.843Z,985.89
2018-01-17T00:12:02.428Z,985.85
2018-01-17T00:12:42.992Z,985.85
2018-01-17T00:13:23.572Z,985.9
2018-01-17T00:14:04.131Z,985.9
2018-01-17T00:14:44.702Z,985.91
2018-01-17T00:15:25.287Z,985.89
2018-01-17T00:16:05.843Z,985.92
2018-01-17T00:16:46.421Z,985.9
2018-01-17T00:17:26.989Z,985.93
2018-01-17T00:18:07.558Z,985.95
2018-01-17T00:18:48.118Z,985.94
2018-01-17T00:19:28.706Z,985.96
2018-01-17T00:20:09.258Z,985.96
2018-01-17T00:20:49.825Z,985.97
2018-01-17T00:21:30.405Z,985.96
2018-01-17T00:22:10.979Z,985.94
2018-01-17T00:22:51.526Z,985.92
2018-01-17T00:23:32.123Z,985.94
2018-01-17T00:24:12.699Z,985.91
2018-01-17T00:24:53.278Z,985.89
2018-01-17T00:25:33.942Z,985.93
2018-01-17T00:26:14.520Z,985.95
2018-01-17T00:26:55.112Z,985.95
2018-01-17T00:27:35.698Z,985.9
2018-01-17T00:28:16.290Z,985.92
2018-01-17T00:28:56.883Z,985.9
2018-01-17T00:29:37.445Z,985.88
2018-01-17T00:30:18.007Z,985.91
2018-01-17T00:30:58.586Z,985.92
2018-01-17T00:31:39.158Z,985.91
2018-01-17T00:32:19.729Z,985.9
2018-01-17T00:33:00.307Z,985.87
2018-01-17T00:33:40.893Z,985.88
2018-01-17T00:34:21.481Z,985.88
2018-01-17T00:35:02.071Z,985.84
2018-01-17T00:35:42.678Z,985.83
2018-01-17T00:36:23.254Z,985.84
2018-01-17T00:37:03.834Z,985.87
2018-01-17T00:37:44.413Z,985.88
2018-01-17T00:38:24.983Z,985.87
2018-01-17T00:39:05.568Z,985.87
2018-01-17T00:39:46.135Z,985.86
2018-01-17T00:40:26.708Z,985.85
2018-01-17T00:41:07.347Z,985.86
2018-01-17T00:41:47.908Z,985.81
2018-01-17T00:42:28.471Z,985.83
2018-01-17T00:43:09.040Z,985.76
2018-01-17T00:43:49.607Z,985.82
2018-01-17T00:44:30.181Z,985.78
2018-01-17T00:45:10.751Z,985.79
2018-01-17T00:45:51.315Z,985.81
2018-01-17T00:46:31.890Z,985.8
2018-01-17T00:47:12.473Z,985.78
2018-01-17T00:47:53.041Z,985.81
2018-01-17T00:48:33.615Z,985.81
2018-01-17T00:49:14.174Z,985.83
2018-01-17T00:49:54.758Z,985.84
2018-01-17T00:50:35.320Z,985.84
2018-01-17T00:51:15.901Z,985.78
2018-01-17T00:51:56.515Z,985.82
2018-01-17T00:52:37.089Z,985.79
2018-01-17T00:53:17.710Z,985.78
2018-01-17T00:53:58.274Z,985.79
2018-01-17T00:54:38.838Z,985.85
2018-01-17T00:55:19.426Z,985.85
2018-01-17T00:55:59.994Z,985.84
2018-01-17T00:56:40.592Z,985.81
2018-01-17T00:57:21.149Z,985.84
2018-01-17T00:58:01.728Z,985.87
2018-01-17T00:58:42.303Z,985.87
2018-01-17T00:59:22.872Z,985.88
2018-01-17T01:00:03.453Z,985.87
2018-01-17T01:00:44.034Z,985.85
2018-01-17T01:01:24.650Z,985.89
2018-01-17T01:02:05.232Z,985.87
2018-01-17T01:02:45.788Z,985.87
2018-01-17T01:03:26.353Z,985.86
2018-01-17T01:04:06.955Z,985.87
2018-01-17T01:04:47.503Z,985.81
2018-01-17T01:05:28.114Z,985.84
2018-01-17T01:06:08.679Z,985.83
2018-01-17T01:06:49.274Z,985.85
2018-01-17T01:07:29.815Z,985.83
2018-01-17T01:08:10.400Z,985.79
2018-01-17T01:08:50.965Z,985.81
2018-01-17T01:09:31.556Z,985.81
2018-01-17T01:10:12.145Z,985.79
2018-01-17T01:10:52.765Z,985.84
2018-01-17T01:11:33.320Z,985.82
2018-01-17T01:12:13.947Z,985.86
2018-01-17T01:12:54.495Z,985.83
2018-01-17T01:13:38.033Z,985.82
2018-01-17T01:14:18.597Z,985.78
2018-01-17T01:14:59.179Z,985.8
2018-01-17T01:15:39.750Z,985.84
2018-01-17T01:16:20.341Z,985.84
2018-01-17T01:17:00.902Z,985.87
2018-01-17T01:17:41.480Z,985.83
2018-01-17T01:18:22.039Z,985.83
2018-01-17T01:19:02.619Z,985.78
2018-01-17T01:19:43.222Z,985.79
2018-01-17T01:20:23.799Z,985.75
2018-01-17T01:21:04.367Z,985.73
2018-01-17T01:21:44.942Z,985.73
2018-01-17T01:22:25.507Z,985.77
2018-01-17T01:23:06.100Z,985.75
2018-01-17T01:23:46.666Z,985.76
2018-01-17T01:24:27.227Z,985.78
2018-01-17T01:25:07.807Z,985.7
2018-01-17T01:25:48.359Z,985.73
2018-01-17T01:26:28.954Z,985.75
2018-01-17T01:27:09.513Z,985.79
2018-01-17T01:27:50.069Z,985.73
2018-01-17T01:28:30.645Z,985.76
2018-01-17T01:29:11.210Z,985.8
2018-01-17T01:29:51.767Z,985.81
2018-01-17T01:30:32.368Z,985.78
2018-01-17T01:31:12.931Z,985.81
2018-01-17T01:31:53.486Z,985.82
2018-01-17T01:32:34.071Z,985.79
2018-01-17T01:33:14.627Z,985.79
2018-01-17T01:33:55.207Z,985.84
2018-01-17T01:34:35.791Z,985.75
2018-01-17T01:35:16.367Z,985.79
2018-01-17T01:35:56.927Z,985.81
2018-01-17T01:36:37.527Z,985.82
2018-01-17T01:37:18.093Z,985.81
2018-01-17T01:37:58.653Z,985.82
2018-01-17T01:38:39.242Z,985.8
2018-01-17T01:39:19.784Z,985.79
2018-01-17T01:40:00.354Z,985.85
2018-01-17T01:40:40.917Z,985.77
2018-01-17T01:41:21.501Z,985.8
2018-01-17T01:42:02.078Z,985.8
2018-01-17T01:42:42.636Z,985.78
2018-01-17T01:43:23.218Z,985.75
2018-01-17T01:44:03.792Z,985.75
2018-01-17T01:44:44.367Z,985.73
2018-01-17T01:45:24.937Z,985.77
2018-01-17T01:46:05.506Z,985.78
2018-01-17T01:46:46.070Z,985.74
2018-01-17T01:47:26.637Z,985.77
2018-01-17T01:48:07.200Z,985.75
2018-01-17T01:48:47.783Z,985.75
2018-01-17T01:49:28.388Z,985.78
2018-01-17T01:50:08.962Z,985.75
2018-01-17T01:50:49.534Z,985.83
2018-01-17T01:51:30.096Z,985.71
2018-01-17T01:52:10.692Z,985.73
2018-01-17T01:52:51.296Z,985.73
2018-01-17T01:53:31.852Z,985.77
2018-01-17T01:54:12.466Z,985.8
2018-01-17T01:54:53.051Z,985.76
2018-01-17T01:55:33.613Z,985.76
2018-01-17T01:56:14.187Z,985.77
2018-01-17T01:56:54.788Z,985.75
2018-01-17T01:57:35.350Z,985.79
2018-01-17T01:58:15.907Z,985.79
2018-01-17T01:58:56.457Z,985.81
2018-01-17T01:59:37.020Z,985.8
2018-01-17T02:00:17.651Z,985.8
2018-01-17T02:00:58.249Z,985.75
2018-01-17T02:01:38.809Z,985.76
2018-01-17T02:02:19.382Z,985.78
2018-01-17T02:02:59.941Z,985.73
2018-01-17T02:03:40.528Z,985.79
2018-01-17T02:04:21.103Z,985.77
2018-01-17T02:05:01.665Z,985.79
2018-01-17T02:05:42.229Z,985.78
2018-01-17T02:06:22.804Z,985.79
2018-01-17T02:07:03.370Z,985.77
2018-01-17T02:07:43.946Z,985.75
2018-01-17T02:08:24.494Z,985.75
2018-01-17T02:09:05.061Z,985.7
2018-01-17T02:09:45.611Z,985.7
2018-01-17T02:10:26.175Z,985.67
2018-01-17T02:11:06.743Z,985.67
2018-01-17T02:11:47.306Z,985.69
2018-01-17T02:12:27.853Z,985.68
2018-01-17T02:13:08.434Z,985.71
2018-01-17T02:13:48.995Z,985.67
2018-01-17T02:14:29.570Z,985.68
2018-01-17T02:15:10.132Z,985.66
2018-01-17T02:15:50.700Z,985.65
2018-01-17T02:16:31.282Z,985.65
2018-01-17T02:17:11.857Z,985.67
2018-01-17T02:17:52.441Z,985.68
2018-01-17T02:18:33.045Z,985.69
2018-01-17T02:19:13.583Z,985.66
2018-01-17T02:19:54.185Z,985.65
2018-01-17T02:20:34.749Z,985.66
2018-01-17T02:21:15.307Z,985.69
2018-01-17T02:21:55.871Z,985.63
2018-01-17T02:22:36.437Z,985.67
2018-01-17T02:23:16.997Z,985.66
2018-01-17T02:23:57.576Z,985.63
2018-01-17T02:24:38.159Z,985.64
2018-01-17T02:25:18.716Z,985.64
2018-01-17T02:25:59.295Z,985.69
2018-01-17T02:26:39.850Z,985.67
2018-01-17T02:27:20.418Z,985.72
2018-01-17T02:28:00.980Z,985.67
2018-01-17T02:28:41.541Z,985.69
2018-01-17T02:29:22.123Z,985.72
2018-01-17T02:30:02.709Z,985.75
2018-01-17T02:30:43.351Z,985.73
2018-01-17T02:31:23.866Z,985.67
2018-01-17T02:32:04.430Z,985.71
2018-01-17T02:32:45.010Z,985.76
2018-01-17T02:33:25.586Z,985.71
2018-01-17T02:34:06.172Z,985.72
2018-01-17T02:34:46.759Z,985.68
2018-01-17T02:35:27.352Z,985.65
2018-01-17T02:36:07.967Z,985.62
2018-01-17T02:36:48.560Z,985.65
2018-01-17T02:37:29.136Z,985.61
2018-01-17T02:38:09.722Z,985.6
2018-01-17T02:38:50.318Z,985.6
2018-01-17T02:39:30.882Z,985.58
2018-01-17T02:40:11.447Z,985.6
2018-01-17T02:40:52.023Z,985.59
2018-01-17T02:41:32.627Z,985.62
2018-01-17T02:42:13.195Z,985.64
2018-01-17T02:42:53.772Z,985.66
2018-01-17T02:43:34.341Z,985.62
2018-01-17T02:44:14.908Z,985.6
2018-01-17T02:44:55.471Z,985.61
2018-01-17T02:45:36.045Z,985.63
2018-01-17T02:46:16.617Z,985.62
2018-01-17T02:46:57.186Z,985.6
2018-01-17T02:47:37.747Z,985.59
2018-01-17T02:48:18.312Z,985.6
2018-01-17T02:48:58.886Z,985.61
2018-01-17T02:49:39.456Z,985.62
2018-01-17T02:50:20.021Z,985.57
2018-01-17T02:51:00.597Z,985.64
2018-01-17T02:51:41.206Z,985.62
2018-01-17T02:52:21.789Z,985.59
2018-01-17T02:53:02.355Z,985.6
2018-01-17T02:53:42.921Z,985.63
2018-01-17T02:54:23.503Z,985.61
2018-01-17T02:55:04.076Z,985.59
2018-01-17T02:55:44.644Z,985.63
2018-01-17T02:56:25.206Z,985.62
2018-01-17T02:57:05.784Z,985.63
2018-01-17T02:57:46.358Z,985.65
2018-01-17T02:58:26.949Z,985.6
2018-01-17T02:59:07.531Z,985.68
2018-01-17T02:59:48.096Z,985.72
2018-01-17T03:00:28.684Z,985.69
2018-01-17T03:01:09.253Z,985.64
2018-01-17T03:01:49.821Z,985.71
2018-01-17T03:02:30.393Z,985.7
2018-01-17T03:03:11.004Z,985.69
2018-01-17T03:03:51.574Z,985.7
2018-01-17T03:04:32.148Z,985.72
2018-01-17T03:05:12.717Z,985.72
2018-01-17T03:05:53.284Z,985.7
2018-01-17T03:06:33.863Z,985.74
2018-01-17T03:07:14.453Z,985.76
2018-01-17T03:07:55.025Z,985.79
2018-01-17T03:08:35.618Z,985.74
2018-01-17T03:09:16.187Z,985.73
2018-01-17T03:09:56.763Z,985.73
2018-01-17T03:10:37.326Z,985.75
2018-01-17T03:11:17.910Z,985.73
2018-01-17T03:11:58.472Z,985.69
2018-01-17T03:12:39.037Z,985.66
2018-01-17T03:13:19.624Z,985.65
2018-01-17T03:14:00.196Z,985.62
2018-01-17T03:14:40.777Z,985.6
2018-01-17T03:15:21.358Z,985.56
2018-01-17T03:16:01.936Z,985.55
2018-01-17T03:16:42.511Z,985.54
2018-01-17T03:17:23.073Z,985.5
2018-01-17T03:18:03.631Z,985.52
2018-01-17T03:18:44.207Z,985.51
2018-01-17T03:19:24.763Z,985.5
2018-01-17T03:20:05.340Z,985.51
2018-01-17T03:20:45.913Z,985.51
2018-01-17T03:21:26.477Z,985.48
2018-01-17T03:22:07.043Z,985.53
2018-01-17T03:22:47.627Z,985.51
2018-01-17T03:23:28.209Z,985.5
2018-01-17T03:24:08.778Z,985.47
2018-01-17T03:24:49.342Z,985.5
2018-01-17T03:25:29.918Z,985.5
2018-01-17T03:26:10.472Z,985.46
2018-01-17T03:26:51.041Z,985.52
2018-01-17T03:27:31.614Z,985.52
2018-01-17T03:28:12.172Z,985.52
2018-01-17T03:28:52.739Z,985.52
2018-01-17T03:29:33.322Z,985.48
2018-01-17T03:30:13.880Z,985.46
2018-01-17T03:30:54.452Z,985.51
2018-01-17T03:31:35.030Z,985.48
2018-01-17T03:32:15.605Z,985.48
2018-01-17T03:32:56.166Z,985.52
2018-01-17T03:33:36.727Z,985.53
2018-01-17T03:34:17.307Z,985.46
2018-01-17T03:34:57.905Z,985.49
2018-01-17T03:35:38.465Z,985.54
2018-01-17T03:36:19.050Z,985.5
2018-01-17T03:36:59.626Z,985.52
2018-01-17T03:37:40.258Z,985.5
2018-01-17T03:38:20.848Z,985.51
2018-01-17T03:39:01.418Z,985.46
2018-01-17T03:39:42.000Z,985.44
2018-01-17T03:40:22.562Z,985.46
2018-01-17T03:41:03.124Z,985.48
2018-01-17T03:41:43.717Z,985.45
2018-01-17T03:42:24.290Z,985.49
2018-01-17T03:43:04.875Z,985.47
2018-01-17T03:43:45.435Z,985.51
2018-01-17T03:44:26.001Z,985.51
2018-01-17T03:45:06.584Z,985.48
2018-01-17T03:45:47.152Z,985.5
2018-01-17T03:46:27.732Z,985.53
2018-01-17T03:47:08.285Z,985.53
2018-01-17T03:47:48.861Z,985.53
2018-01-17T03:48:29.437Z,985.49
2018-01-17T03:49:10.014Z,985.53
2018-01-17T03:49:50.572Z,985.51
2018-01-17T03:50:31.136Z,985.51
2018-01-17T03:51:11.698Z,985.47
2018-01-17T03:51:52.272Z,985.49
2018-01-17T03:52:32.820Z,985.4
2018-01-17T03:53:13.388Z,985.4
2018-01-17T03:53:53.970Z,985.45
2018-01-17T03:54:34.546Z,985.42
2018-01-17T03:55:15.107Z,985.45
2018-01-17T03:55:55.709Z,985.46
2018-01-17T03:56:36.283Z,985.45
2018-01-17T03:57:16.845Z,985.45
2018-01-17T03:57:57.432Z,985.37
2018-01-17T03:58:38.032Z,985.43
2018-01-17T03:59:18.603Z,985.4
2018-01-17T03:59:59.187Z,985.39
2018-01-17T04:00:39.768Z,985.39
2018-01-17T04:01:20.322Z,985.43
2018-01-17T04:02:00.931Z,985.34
2018-01-17T04:02:41.482Z,985.37
2018-01-17T04:03:22.056Z,985.36
2018-01-17T04:04:02.654Z,985.38
2018-01-17T04:04:43.221Z,985.42
2018-01-17T04:05:23.805Z,985.43
2018-01-17T04:06:04.378Z,985.41
2018-01-17T04:06:44.954Z,985.43
2018-01-17T04:07:25.546Z,985.39
2018-01-17T04:08:06.138Z,985.4
2018-01-17T04:08:46.719Z,985.44
2018-01-17T04:09:27.279Z,985.39
2018-01-17T04:10:07.843Z,985.41
2018-01-17T04:10:48.407Z,985.42
2018-01-17T04:11:29.010Z,985.41
2018-01-17T04:12:09.576Z,985.43
2018-01-17T04:12:50.149Z,985.36
2018-01-17T04:13:30.734Z,985.38
2018-01-17T04:14:11.298Z,985.4
2018-01-17T04:14:51.868Z,985.41
2018-01-17T04:15:32.433Z,985.39
2018-01-17T04:16:13.005Z,985.39
2018-01-17T04:16:53.563Z,985.37
2018-01-17T04:17:34.153Z,985.38
2018-01-17T04:18:14.720Z,985.48
2018-01-17T04:18:55.335Z,985.4
2018-01-17T04:19:35.903Z,985.44
2018-01-17T04:20:16.472Z,985.42
2018-01-17T04:20:57.060Z,985.46
2018-01-17T04:21:37.640Z,985.45
2018-01-17T04:22:18.240Z,985.43
2018-01-17T04:22:58.811Z,985.48
2018-01-17T04:23:39.371Z,985.47
2018-01-17T04:24:19.958Z,985.48
2018-01-17T04:25:00.520Z,985.47
2018-01-17T04:25:41.097Z,985.46
2018-01-17T04:26:21.657Z,985.46
2018-01-17T04:27:02.231Z,985.43
2018-01-17T04:27:42.822Z,985.42
2018-01-17T04:28:23.455Z,985.44
2018-01-17T04:29:04.024Z,985.46
2018-01-17T04:29:44.615Z,985.48
2018-01-17T04:30:25.206Z,985.41
2018-01-17T04:31:05.764Z,985.44
2018-01-17T04:31:46.326Z,985.46
2018-01-17T04:32:26.882Z,985.43
2018-01-17T04:33:07.457Z,985.44
2018-01-17T04:33:48.036Z,985.47
2018-01-17T04:34:28.594Z,985.47
2018-01-17T04:35:09.162Z,985.47
2018-01-17T04:35:49.738Z,985.4
2018-01-17T04:36:30.322Z,985.41
2018-01-17T04:37:10.905Z,985.38
2018-01-17T04:37:51.479Z,985.4
2018-01-17T04:38:32.056Z,985.46
2018-01-17T04:39:12.617Z,985.37
2018-01-17T04:39:53.230Z,985.37
2018-01-17T04:40:33.788Z,985.37
2018-01-17T04:41:14.361Z,985.41
2018-01-17T04:41:54.943Z,985.4
2018-01-17T04:42:35.528Z,985.41
2018-01-17T04:43:16.115Z,985.41
2018-01-17T04:43:56.742Z,985.43
2018-01-17T04:44:37.321Z,985.42
2018-01-17T04:45:17.910Z,985.43
2018-01-17T04:45:58.470Z,985.4
2018-01-17T04:46:39.038Z,985.41
2018-01-17T04:47:19.621Z,985.4
2018-01-17T04:48:00.242Z,985.47
2018-01-17T04:48:40.818Z,985.42
2018-01-17T04:49:21.395Z,985.43
2018-01-17T04:50:01.977Z,985.46
2018-01-17T04:50:42.545Z,985.47
2018-01-17T04:51:23.103Z,985.48
2018-01-17T04:52:03.687Z,985.49
2018-01-17T04:52:44.288Z,985.46
2018-01-17T04:53:24.860Z,985.47
2018-01-17T04:54:05.426Z,985.46
2018-01-17T04:54:45.992Z,985.47
2018-01-17T04:55:26.565Z,985.48
2018-01-17T04:56:07.142Z,985.46
2018-01-17T04:56:47.691Z,985.47
2018-01-17T04:57:28.265Z,985.48
2018-01-17T04:58:08.836Z,985.43
2018-01-17T04:58:49.435Z,985.41
2018-01-17T04:59:29.983Z,985.46
2018-01-17T05:00:10.564Z,985.45
2018-01-17T05:00:51.122Z,985.46
2018-01-17T05:01:31.692Z,985.47
2018-01-17T05:02:12.266Z,985.51
2018-01-17T05:02:52.814Z,985.51
2018-01-17T05:03:33.398Z,985.46
2018-01-17T05:04:13.987Z,985.49
2018-01-17T05:04:54.546Z,985.46
2018-01-17T05:05:35.121Z,985.46
2018-01-17T05:06:15.723Z,985.45
2018-01-17T05:06:56.278Z,985.49
2018-01-17T05:07:37.023Z,985.46
2018-01-17T05:08:17.615Z,985.47
2018-01-17T05:08:58.230Z,985.45
2018-01-17T05:09:38.783Z,985.46
2018-01-17T05:10:19.368Z,985.43
2018-01-17T05:10:59.943Z,985.48
2018-01-17T05:11:40.532Z,985.44
2018-01-17T05:12:21.092Z,985.46
2018-01-17T05:13:01.677Z,985.5
2018-01-17T05:13:42.281Z,985.45
2018-01-17T05:14:22.839Z,985.47
2018-01-17T05:15:03.390Z,985.44
2018-01-17T05:15:43.953Z,985.48
2018-01-17T05:16:24.620Z,985.46
2018-01-17T05:17:05.174Z,985.44
2018-01-17T05:17:45.761Z,985.46
2018-01-17T05:18:26.342Z,985.47
2018-01-17T05:19:06.907Z,985.45
2018-01-17T05:19:47.488Z,985.44
2018-01-17T05:20:28.073Z,985.4
2018-01-17T05:21:08.664Z,985.43
2018-01-17T05:21:49.250Z,985.43
2018-01-17T05:22:29.853Z,985.44
2018-01-17T05:23:10.411Z,985.39
2018-01-17T05:23:50.989Z,985.42
2018-01-17T05:24:31.551Z,985.39
2018-01-17T05:25:12.133Z,985.38
2018-01-17T05:25:52.700Z,985.41
2018-01-17T05:26:33.264Z,985.41
2018-01-17T05:27:13.848Z,985.4
2018-01-17T05:27:54.408Z,985.4
2018-01-17T05:28:34.971Z,985.42
2018-01-17T05:29:15.532Z,985.42
2018-01-17T05:29:56.135Z,985.41
2018-01-17T05:30:36.698Z,985.41
2018-01-17T05:31:17.266Z,985.41
2018-01-17T05:31:57.843Z,985.45
2018-01-17T05:32:38.417Z,985.42
2018-01-17T05:33:18.968Z,985.47
2018-01-17T05:33:59.558Z,985.45
2018-01-17T05:34:40.149Z,985.4
2018-01-17T05:35:20.726Z,985.46
2018-01-17T05:36:01.304Z,985.43
2018-01-17T05:36:41.891Z,985.47
2018-01-17T05:37:22.444Z,985.49
2018-01-17T05:38:03.013Z,985.5
2018-01-17T05:38:43.591Z,985.5
2018-01-17T05:39:24.187Z,985.41
2018-01-17T05:40:04.763Z,985.45
2018-01-17T05:40:45.327Z,985.44
2018-01-17T05:41:25.909Z,985.44
2018-01-17T05:42:06.476Z,985.42
2018-01-17T05:42:47.060Z,985.45
2018-01-17T05:43:27.642Z,985.42
2018-01-17T05:44:08.200Z,985.45
2018-01-17T05:44:48.756Z,985.43
2018-01-17T05:45:29.335Z,985.44
2018-01-17T05:46:09.909Z,985.41
2018-01-17T05:46:50.465Z,985.44
2018-01-17T05:47:31.115Z,985.43
2018-01-17T05:48:11.659Z,985.45
2018-01-17T05:48:52.253Z,985.42
2018-01-17T05:49:32.808Z,985.48
2018-01-17T05:50:13.396Z,985.44
2018-01-17T05:50:53.958Z,985.48
2018-01-17T05:51:34.541Z,985.39
2018-01-17T05:52:15.106Z,985.41
2018-01-17T05:52:55.662Z,985.42
2018-01-17T05:53:36.247Z,985.4
2018-01-17T05:54:16.808Z,985.43
2018-01-17T05:54:57.372Z,985.39
2018-01-17T05:55:37.973Z,985.39
2018-01-17T05:56:18.548Z,985.39
2018-01-17T05:56:59.106Z,985.41
2018-01-17T05:57:39.669Z,985.41
2018-01-17T05:58:20.256Z,985.39
2018-01-17T05:59:00.822Z,985.44
2018-01-17T05:59:41.374Z,985.44
2018-01-17T06:00:21.961Z,985.42
2018-01-17T06:01:03.285Z,985.43
2018-01-17T06:01:43.861Z,985.44
2018-01-17T06:02:24.440Z,985.4
2018-01-17T06:03:05.001Z,985.41
2018-01-17T06:03:45.565Z,985.42
2018-01-17T06:04:26.144Z,985.41
2018-01-17T06:05:06.718Z,985.43
2018-01-17T06:05:47.290Z,985.44
2018-01-17T06:06:27.844Z,985.4
2018-01-17T06:07:08.405Z,985.43
2018-01-17T06:07:48.972Z,985.36
2018-01-17T06:08:29.550Z,985.38
2018-01-17T06:09:10.108Z,985.47
2018-01-17T06:09:50.685Z,985.36
2018-01-17T06:10:31.246Z,985.37
2018-01-17T06:11:11.817Z,985.36
2018-01-17T06:11:52.383Z,985.39
2018-01-17T06:12:32.947Z,985.37
2018-01-17T06:13:13.520Z,985.32
2018-01-17T06:13:54.087Z,985.38
2018-01-17T06:14:34.654Z,985.39
2018-01-17T06:15:15.220Z,985.36
2018-01-17T06:15:55.794Z,985.37
2018-01-17T06:16:36.387Z,985.34
2018-01-17T06:17:16.950Z,985.39
2018-01-17T06:17:57.525Z,985.39
2018-01-17T06:18:38.088Z,985.37
2018-01-17T06:19:18.664Z,985.42
2018-01-17T06:19:59.215Z,985.37
2018-01-17T06:20:39.783Z,985.39
2018-01-17T06:21:20.374Z,985.41
2018-01-17T06:22:00.943Z,985.36
2018-01-17T06:22:41.532Z,985.41
2018-01-17T06:23:22.177Z,985.41
2018-01-17T06:24:02.752Z,985.42
2018-01-17T06:24:43.319Z,985.38
2018-01-17T06:25:23.881Z,985.37
2018-01-17T06:26:04.460Z,985.45
2018-01-17T06:26:45.017Z,985.46
2018-01-17T06:27:25.614Z,985.48
2018-01-17T06:28:06.228Z,985.49
2018-01-17T06:28:46.815Z,985.52
2018-01-17T06:29:27.365Z,985.54
2018-01-17T06:30:07.920Z,985.54
2018-01-17T06:30:48.480Z,985.57
2018-01-17T06:31:29.036Z,985.56
2018-01-17T06:32:09.624Z,985.61
2018-01-17T06:32:50.191Z,985.62
2018-01-17T06:33:30.740Z,985.64
2018-01-17T06:34:11.330Z,985.64
2018-01-17T06:34:51.899Z,985.67
2018-01-17T06:35:32.461Z,985.66
2018-01-17T06:36:13.039Z,985.66
2018-01-17T06:36:53.609Z,985.67
2018-01-17T06:37:34.172Z,985.66
2018-01-17T06:38:14.737Z,985.68
2018-01-17T06:38:55.315Z,985.65
2018-01-17T06:39:35.882Z,985.66
2018-01-17T06:40:16.489Z,985.68
2018-01-17T06:40:57.070Z,985.68
2018-01-17T06:41:37.632Z,985.67
2018-01-17T06:42:18.200Z,985.68
2018-01-17T06:42:58.797Z,985.72
2018-01-17T06:43:39.403Z,985.72
2018-01-17T06:44:19.978Z,985.72
2018-01-17T06:45:00.547Z,985.72
2018-01-17T06:45:41.135Z,985.67
2018-01-17T06:46:21.742Z,985.72
2018-01-17T06:47:02.304Z,985.71
2018-01-17T06:47:42.874Z,985.74
2018-01-17T06:48:23.434Z,985.74
2018-01-17T06:49:04.004Z,985.78
2018-01-17T06:49:44.595Z,985.73
2018-01-17T06:50:25.158Z,985.78
2018-01-17T06:51:05.772Z,985.76
2018-01-17T06:51:46.350Z,985.78
2018-01-17T06:52:26.911Z,985.75
2018-01-17T06:53:07.484Z,985.76
2018-01-17T06:53:48.168Z,985.72
2018-01-17T06:54:28.839Z,985.73
2018-01-17T06:55:10.251Z,985.7
2018-01-17T06:55:53.041Z,985.75
2018-01-17T06:56:33.620Z,985.76
2018-01-17T06:57:14.214Z,985.76
2018-01-17T06:57:55.641Z,985.76
2018-01-17T06:58:37.959Z,985.75
2018-01-17T06:59:18.531Z,985.79
2018-01-17T06:59:59.154Z,985.79
2018-01-17T07:00:39.793Z,985.81
2018-01-17T07:01:20.362Z,985.76
2018-01-17T07:02:01.829Z,985.74
2018-01-17T07:02:42.416Z,985.79
2018-01-17T07:03:22.992Z,985.76
2018-01-17T07:04:03.549Z,985.71
2018-01-17T07:04:44.184Z,985.78
2018-01-17T07:05:24.759Z,985.74
2018-01-17T07:06:05.361Z,985.77
2018-01-17T07:06:45.946Z,985.73
2018-01-17T07:07:26.535Z,985.78
2018-01-17T07:08:07.099Z,985.73
2018-01-17T07:08:47.675Z,985.74
2018-01-17T07:09:28.241Z,985.71
2018-01-17T07:10:08.803Z,985.72
2018-01-17T07:10:49.398Z,985.74
2018-01-17T07:11:29.978Z,985.74
2018-01-17T07:12:10.538Z,985.7
2018-01-17T07:12:51.090Z,985.72
2018-01-17T07:13:31.646Z,985.74
2018-01-17T07:14:12.218Z,985.73
2018-01-17T07:14:52.786Z,985.75
2018-01-17T07:15:33.346Z,985.79
2018-01-17T07:16:13.931Z,985.74
2018-01-17T07:16:54.482Z,985.82
2018-01-17T07:17:35.077Z,985.8
2018-01-17T07:18:15.633Z,985.8
2018-01-17T07:18:56.212Z,985.84
2018-01-17T07:19:36.780Z,985.83
2018-01-17T07:20:17.339Z,985.89
2018-01-17T07:20:57.894Z,985.82
2018-01-17T07:21:38.452Z,985.86
2018-01-17T07:22:19.026Z,985.83
2018-01-17T07:22:59.608Z,985.85
2018-01-17T07:23:40.176Z,985.86
2018-01-17T07:24:20.751Z,985.86
2018-01-17T07:25:01.308Z,985.84
2018-01-17T07:25:41.869Z,985.83
2018-01-17T07:26:22.430Z,985.85
2018-01-17T07:27:02.997Z,985.86
2018-01-17T07:27:43.607Z,985.87
2018-01-17T07:28:24.175Z,985.87
2018-01-17T07:29:06.567Z,985.86
2018-01-17T07:29:49.068Z,985.88
2018-01-17T07:30:29.459Z,985.86
2018-01-17T07:31:10.044Z,985.88
2018-01-17T07:31:50.626Z,985.9
2018-01-17T07:32:31.183Z,985.86
2018-01-17T07:33:11.791Z,985.9
2018-01-17T07:33:52.366Z,985.87
2018-01-17T07:34:34.196Z,985.86
2018-01-17T07:35:16.026Z,985.9
2018-01-17T07:35:56.601Z,985.9
2018-01-17T07:36:37.178Z,985.93
2018-01-17T07:37:19.409Z,985.87
2018-01-17T07:37:59.969Z,985.86
2018-01-17T07:38:40.562Z,985.89
2018-01-17T07:39:21.199Z,985.88
2018-01-17T07:40:02.230Z,985.92
2018-01-17T07:40:42.876Z,985.9
2018-01-17T07:41:27.935Z,985.92
2018-01-17T07:42:08.562Z,985.91
2018-01-17T07:42:52.187Z,985.95
2018-01-17T07:43:32.805Z,985.87
2018-01-17T07:44:16.554Z,985.89
2018-01-17T07:44:57.112Z,985.87
2018-01-17T07:45:37.689Z,985.9
2018-01-17T07:46:18.245Z,985.9
2018-01-17T07:46:58.884Z,985.94
2018-01-17T07:47:39.479Z,985.95
2018-01-17T07:48:20.108Z,985.93
2018-01-17T07:49:00.666Z,985.95
2018-01-17T07:49:41.230Z,985.97
2018-01-17T07:50:21.790Z,986.01
2018-01-17T07:51:02.377Z,985.99
2018-01-17T07:51:42.951Z,985.95
2018-01-17T07:52:23.549Z,985.99
2018-01-17T07:53:04.134Z,986.03
2018-01-17T07:53:44.673Z,986.05
2018-01-17T07:54:25.224Z,986.02
2018-01-17T07:55:05.789Z,986.04
2018-01-17T07:55:46.359Z,986.07
2018-01-17T07:56:26.926Z,986.05
2018-01-17T07:57:07.489Z,986.08
2018-01-17T07:57:48.065Z,986.06
2018-01-17T07:58:28.640Z,986.09
2018-01-17T07:59:09.204Z,986.11
2018-01-17T07:59:49.828Z,986.13
2018-01-17T08:00:30.389Z,986.1
2018-01-17T08:01:10.966Z,986.1
2018-01-17T08:01:51.839Z,986.1
2018-01-17T08:02:32.465Z,986.14
2018-01-17T08:03:13.030Z,986.09
2018-01-17T08:03:53.590Z,986.13
2018-01-17T08:04:34.180Z,986.13
2018-01-17T08:05:14.756Z,986.16
2018-01-17T08:05:56.384Z,986.16
2018-01-17T08:06:36.962Z,986.15
2018-01-17T08:07:17.539Z,986.16
2018-01-17T08:07:58.086Z,986.13
2018-01-17T08:08:39.138Z,986.17
2018-01-17T08:09:19.907Z,986.18
2018-01-17T08:10:01.000Z,986.19
2018-01-17T08:10:41.560Z,986.18
2018-01-17T08:11:22.138Z,986.16
2018-01-17T08:12:02.702Z,986.16
2018-01-17T08:12:43.265Z,986.19
2018-01-17T08:13:23.825Z,986.18
2018-01-17T08:14:04.395Z,986.21
2018-01-17T08:14:44.981Z,986.19
2018-01-17T08:15:25.538Z,986.17
2018-01-17T08:16:06.104Z,986.19
2018-01-17T08:16:46.674Z,986.21
2018-01-17T08:17:27.257Z,986.23
2018-01-17T08:18:07.819Z,986.2
2018-01-17T08:18:48.389Z,986.23
2018-01-17T08:19:28.954Z,986.25
2018-01-17T08:20:09.545Z,986.25
2018-01-17T08:20:50.128Z,986.22
2018-01-17T08:21:30.698Z,986.24
2018-01-17T08:22:11.252Z,986.26
2018-01-17T08:22:51.822Z,986.27
2018-01-17T08:23:32.396Z,986.28
2018-01-17T08:24:12.976Z,986.3
2018-01-17T08:24:53.539Z,986.32
2018-01-17T08:25:34.122Z,986.28
2018-01-17T08:26:14.700Z,986.3
2018-01-17T08:26:55.264Z,986.25
2018-01-17T08:27:35.822Z,986.29
2018-01-17T08:28:16.390Z,986.29